Marlow, Georgia
Current Conditions -  °F | °C
As of 3:53 AM on Sunday 23 Nov 2014 (Local Time) from KSAV Reporting Station
Moderate Rain Moderate Rain  
Wind Chill: 61°   Ceiling: 3600
Heat Index: 61°   Visibility: 6mi
Dew Point: 57°   Wind: 9mph
Humidity: 87%   Direction: 60°ENE
Pressure: 30.11"   Gusts: NA
Location:  32.3167°N, 81.3986°W
Report Text: KSAV 230853Z AUTO 06008KT 6SM RA BR BKN036 BKN050 OVC090 16/14 A3011 RMK AO2 SLP196 P0006 60012 T01610139 58022 TSNO
Loading
Personal Weather Stations






























Interactive Weather Map New forecast layout! Learn more

10-Day Weather Forecast

Advertisements
Track Severe Weather on mobile